Time;durP1;ratioP1;P1;durP2;ratioP2;P2;SDS_P1;SDS_P2;PMS_P1;PMS_P2;Temp;Humidity;BMP_temperature;BMP_pressure;BME280_temperature;BME280_humidity;BME280_pressure;Samples;Min_cycle;Max_cycle;Signal;HPM_P1;HPM_P2
2023/04/24 00:00:02;;;;;;;1.10;0.88;;;14.90;48.40;;;;;;20491;6845;282950;-73
2023/04/24 00:02:27;;;;;;;1.27;0.77;;;15.20;47.70;;;;;;20694;6845;117645;-72
2023/04/24 00:04:52;;;;;;;1.47;0.70;;;15.20;48.00;;;;;;20508;6845;337816;-73
2023/04/24 00:07:19;;;;;;;0.60;0.60;;;15.20;47.60;;;;;;20513;6845;278307;-72
2023/04/24 00:09:43;;;;;;;0.73;0.60;;;15.50;47.00;;;;;;20713;6845;117930;-72
2023/04/24 00:12:09;;;;;;;1.50;0.73;;;15.40;47.50;;;;;;20509;6845;316249;-73
2023/04/24 00:14:35;;;;;;;1.53;0.90;;;15.40;47.20;;;;;;20504;6845;337330;-72
2023/04/24 00:17:04;;;;;;;1.60;0.80;;;15.60;46.70;;;;;;20516;6845;307788;-74
2023/04/24 00:19:29;;;;;;;0.90;0.80;;;15.70;46.30;;;;;;20723;6845;117254;-73
2023/04/24 00:21:55;;;;;;;0.80;0.70;;;15.50;46.90;;;;;;20484;6845;308392;-73
2023/04/24 00:24:20;;;;;;;1.65;0.82;;;15.50;46.60;;;;;;20726;6845;117918;-72
2023/04/24 00:26:46;;;;;;;1.43;0.90;;;15.30;47.20;;;;;;20717;6845;117441;-73
2023/04/24 00:29:12;;;;;;;0.83;0.70;;;15.00;47.60;;;;;;20719;6845;117854;-73
2023/04/24 00:31:38;;;;;;;0.80;0.70;;;14.60;48.50;;;;;;20714;6845;117386;-73
2023/04/24 00:34:03;;;;;;;2.03;0.70;;;14.60;48.50;;;;;;20701;6845;117509;-73
2023/04/24 00:36:30;;;;;;;1.08;0.70;;;14.50;49.10;;;;;;20508;6845;308105;-73
2023/04/24 00:38:55;;;;;;;1.07;0.90;;;14.80;48.10;;;;;;20718;6845;117428;-73
2023/04/24 00:41:20;;;;;;;0.73;0.73;;;14.80;47.90;;;;;;20721;6845;117887;-73
2023/04/24 00:43:46;;;;;;;0.73;0.68;;;14.70;48.20;;;;;;20483;6845;308056;-74
2023/04/24 00:46:11;;;;;;;1.23;0.68;;;14.90;47.90;;;;;;20774;6845;117472;-73
2023/04/24 00:48:37;;;;;;;0.93;0.80;;;15.00;48.00;;;;;;20503;6845;309108;-73
2023/04/24 00:51:02;;;;;;;0.73;0.73;;;15.20;47.60;;;;;;20507;6843;277599;-73
2023/04/24 00:53:29;;;;;;;0.83;0.70;;;15.80;46.60;;;;;;20509;6844;318130;-72
2023/04/24 00:55:54;;;;;;;29.05;25.95;;;15.80;46.60;;;;;;20488;6845;339139;-73
2023/04/24 00:58:21;;;;;;;9.07;8.20;;;16.10;45.70;;;;;;20499;6845;301257;-73
2023/04/24 01:00:47;;;;;;;2.25;0.88;;;16.30;46.00;;;;;;20513;6845;279344;-73
2023/04/24 01:03:13;;;;;;;0.70;0.70;;;16.20;45.90;;;;;;20714;6845;123687;-73
2023/04/24 01:05:38;;;;;;;1.93;0.73;;;16.00;46.30;;;;;;20718;6845;117736;-73
2023/04/24 01:08:04;;;;;;;0.67;0.67;;;15.60;47.00;;;;;;20495;6845;281010;-73
2023/04/24 01:10:29;;;;;;;1.50;0.80;;;15.70;46.90;;;;;;20437;6845;280326;-73
2023/04/24 01:12:55;;;;;;;0.90;0.60;;;15.90;46.50;;;;;;20490;6845;307406;-70
2023/04/24 01:15:21;;;;;;;1.00;0.90;;;16.20;46.10;;;;;;20492;6845;303509;-72
2023/04/24 01:17:47;;;;;;;0.60;0.60;;;16.20;46.00;;;;;;20692;6845;117833;-73
2023/04/24 01:20:12;;;;;;;2.23;0.70;;;16.00;46.60;;;;;;20710;6845;117937;-72
2023/04/24 01:22:39;;;;;;;1.60;0.83;;;15.30;48.00;;;;;;20708;6845;117894;-71
2023/04/24 01:25:05;;;;;;;1.90;0.90;;;15.30;48.00;;;;;;20714;6845;118302;-71
2023/04/24 01:27:30;;;;;;;0.80;0.70;;;15.10;48.60;;;;;;20706;6845;123179;-72
2023/04/24 01:29:56;;;;;;;0.80;0.80;;;14.90;49.20;;;;;;20687;6845;117794;-71
2023/04/24 01:32:21;;;;;;;1.70;0.80;;;14.70;49.80;;;;;;20465;6845;308369;-71
2023/04/24 01:34:47;;;;;;;2.03;0.90;;;14.80;51.30;;;;;;20475;6845;283911;-72
2023/04/24 01:37:13;;;;;;;1.00;0.90;;;15.40;51.00;;;;;;20433;6845;341827;-72
2023/04/24 01:39:39;;;;;;;1.05;0.95;;;15.30;50.90;;;;;;20492;6845;311497;-71
2023/04/24 01:42:05;;;;;;;1.95;1.00;;;15.50;50.30;;;;;;20467;6845;307285;-72
2023/04/24 01:44:30;;;;;;;1.43;0.73;;;15.60;50.10;;;;;;20652;6845;117339;-72
2023/04/24 01:46:56;;;;;;;1.00;0.87;;;15.30;50.50;;;;;;20486;6845;282058;-72
2023/04/24 01:49:21;;;;;;;2.73;0.90;;;15.30;50.50;;;;;;20699;6845;117854;-71
2023/04/24 01:51:50;;;;;;;0.70;0.70;;;14.70;51.10;;;;;;20677;6845;117959;-72
2023/04/24 01:54:15;;;;;;;2.00;0.87;;;14.70;51.10;;;;;;20489;6845;293660;-72
2023/04/24 01:56:41;;;;;;;2.87;1.00;;;14.80;52.00;;;;;;20505;6845;308622;-72
2023/04/24 01:59:06;;;;;;;0.70;0.70;;;15.00;51.70;;;;;;20712;6845;117265;-72
2023/04/24 02:01:38;;;;;;;1.67;0.70;;;14.90;51.60;;;;;;20709;6845;117380;-71
2023/04/24 02:04:01;;;;;;;0.60;0.60;;;14.40;53.00;;;;;;20672;6843;121337;-71
2023/04/24 02:06:27;;;;;;;1.57;0.80;;;14.40;52.40;;;;;;20498;6845;308462;-72
2023/04/24 02:08:52;;;;;;;0.70;0.70;;;14.60;52.50;;;;;;20722;6845;118109;-72
2023/04/24 02:11:18;;;;;;;1.30;1.03;;;14.60;52.30;;;;;;20712;6845;117802;-72
2023/04/24 02:13:43;;;;;;;1.48;0.70;;;14.40;52.50;;;;;;20505;6845;338500;-72
2023/04/24 02:16:10;;;;;;;0.50;0.50;;;14.60;52.80;;;;;;20700;6845;118239;-72
2023/04/24 02:18:36;;;;;;;0.60;0.60;;;14.70;52.60;;;;;;20496;6845;308899;-72
2023/04/24 02:21:01;;;;;;;1.40;0.70;;;14.80;52.20;;;;;;20504;6845;307270;-72
2023/04/24 02:23:27;;;;;;;2.10;0.90;;;15.10;52.00;;;;;;20513;6845;283610;-72
2023/04/24 02:25:53;;;;;;;0.60;0.60;;;15.40;51.50;;;;;;20694;6845;124192;-72
2023/04/24 02:28:18;;;;;;;1.50;0.88;;;15.20;51.50;;;;;;20483;6845;342196;-72
2023/04/24 02:30:44;;;;;;;3.63;1.13;;;15.20;51.90;;;;;;20695;6845;118655;-72
2023/04/24 02:33:09;;;;;;;1.20;0.90;;;15.00;51.90;;;;;;20485;6845;308165;-73
2023/04/24 02:35:35;;;;;;;1.30;0.73;;;15.10;52.70;;;;;;20701;6845;117391;-72
2023/04/24 02:38:00;;;;;;;1.43;0.90;;;14.90;52.60;;;;;;20696;6845;122098;-72
2023/04/24 02:40:26;;;;;;;1.13;0.77;;;14.60;53.00;;;;;;20509;6845;302099;-72
2023/04/24 02:42:52;;;;;;;1.37;0.80;;;14.60;53.70;;;;;;20721;6845;118815;-72
2023/04/24 02:45:18;;;;;;;1.23;0.87;;;14.50;53.20;;;;;;20715;6845;117728;-72
2023/04/24 02:47:43;;;;;;;0.93;0.90;;;14.30;53.60;;;;;;20718;6845;117431;-72
2023/04/24 02:50:09;;;;;;;2.17;0.90;;;14.10;53.80;;;;;;20677;6845;117834;-72
2023/04/24 02:52:35;;;;;;;0.60;0.60;;;13.80;54.40;;;;;;20703;6845;117341;-72
2023/04/24 02:55:01;;;;;;;0.82;0.82;;;13.80;54.40;;;;;;20482;6845;342888;-72
2023/04/24 02:57:26;;;;;;;0.88;0.88;;;14.10;54.30;;;;;;20705;6845;117446;-72
2023/04/24 02:59:52;;;;;;;0.93;0.70;;;14.10;54.00;;;;;;20676;6845;117370;-73
2023/04/24 03:02:20;;;;;;;0.77;0.70;;;14.00;54.10;;;;;;20716;6845;117454;-72
2023/04/24 03:04:45;;;;;;;0.80;0.70;;;13.90;54.40;;;;;;20511;6845;311199;-72
2023/04/24 03:07:10;;;;;;;0.80;0.60;;;14.10;54.00;;;;;;20724;6845;117261;-72
2023/04/24 03:09:35;;;;;;;0.70;0.70;;;14.20;53.70;;;;;;20726;6845;117847;-72
2023/04/24 03:12:01;;;;;;;2.17;0.97;;;14.10;53.90;;;;;;20698;6845;121364;-72
2023/04/24 03:14:26;;;;;;;1.23;0.97;;;14.00;54.00;;;;;;20710;6843;118378;-72
2023/04/24 03:16:52;;;;;;;1.85;1.02;;;13.90;54.20;;;;;;20505;6844;309043;-72
2023/04/24 03:19:19;;;;;;;5.33;1.03;;;14.10;55.00;;;;;;20703;6845;118517;-73
2023/04/24 03:21:44;;;;;;;2.73;0.77;;;14.10;54.70;;;;;;20689;6845;117610;-74
2023/04/24 03:24:10;;;;;;;1.90;1.00;;;13.90;54.90;;;;;;20489;6845;307859;-73
2023/04/24 03:26:35;;;;;;;2.03;1.10;;;14.10;55.80;;;;;;20492;6845;313513;-72
2023/04/24 03:29:01;;;;;;;1.70;1.02;;;14.40;55.60;;;;;;20711;6845;117818;-73
2023/04/24 03:31:26;;;;;;;1.57;0.93;;;14.30;55.20;;;;;;20504;6845;308346;-72
2023/04/24 03:33:53;;;;;;;1.27;1.10;;;14.60;55.60;;;;;;20488;6845;289056;-73
2023/04/24 03:36:19;;;;;;;2.28;1.48;;;14.60;55.60;;;;;;20505;6845;337635;-73
2023/04/24 03:38:44;;;;;;;1.30;1.17;;;14.80;55.30;;;;;;20501;6845;305808;-72
2023/04/24 03:41:09;;;;;;;2.20;1.17;;;14.90;55.00;;;;;;20506;6845;309044;-72
2023/04/24 03:43:36;;;;;;;3.27;1.20;;;15.00;54.40;;;;;;20501;6845;278636;-73
2023/04/24 03:46:01;;;;;;;2.40;1.10;;;15.00;54.40;;;;;;20684;6845;118444;-73
2023/04/24 03:48:27;;;;;;;3.05;1.15;;;14.70;54.50;;;;;;20701;6845;117653;-73
2023/04/24 03:50:52;;;;;;;2.03;0.90;;;14.30;55.20;;;;;;20701;6845;117302;-72
2023/04/24 03:53:19;;;;;;;0.67;0.67;;;13.90;55.70;;;;;;20717;6845;118037;-72
2023/04/24 03:55:43;;;;;;;0.80;0.80;;;13.60;56.10;;;;;;20713;6845;117562;-72
2023/04/24 03:58:11;;;;;;;0.63;0.63;;;13.20;56.90;;;;;;20697;6845;123981;-72
2023/04/24 04:00:37;;;;;;;0.87;0.60;;;13.20;56.90;;;;;;20714;6845;117401;-72
2023/04/24 04:03:01;;;;;;;2.08;1.00;;;13.10;57.30;;;;;;20500;6845;308409;-72
2023/04/24 04:05:31;;;;;;;1.10;1.00;;;13.30;57.30;;;;;;20505;6845;341505;-74
2023/04/24 04:07:54;;;;;;;1.80;1.00;;;13.70;56.60;;;;;;20462;6845;338090;-73
2023/04/24 04:10:19;;;;;;;1.65;0.90;;;14.00;55.70;;;;;;20507;6845;337481;-73
2023/04/24 04:12:45;;;;;;;2.20;0.80;;;14.20;55.10;;;;;;20706;6845;117505;-73
2023/04/24 04:15:10;;;;;;;1.47;0.80;;;14.00;55.10;;;;;;20717;6845;117777;-73
2023/04/24 04:17:37;;;;;;;2.15;0.77;;;13.70;55.80;;;;;;20716;6845;118343;-73
2023/04/24 04:20:07;;;;;;;2.70;1.10;;;13.40;56.30;;;;;;20482;6845;284304;-73
2023/04/24 04:22:28;;;;;;;1.37;0.83;;;13.50;56.60;;;;;;20494;6845;278137;-73
2023/04/24 04:24:54;;;;;;;0.93;0.80;;;13.80;56.00;;;;;;20507;6845;308303;-73
2023/04/24 04:27:24;;;;;;;1.83;0.80;;;14.10;55.60;;;;;;20721;6843;117536;-80
2023/04/24 04:29:49;;;;;;;1.23;0.80;;;14.00;55.60;;;;;;20489;6845;282269;-74
2023/04/24 04:32:15;;;;;;;0.80;0.80;;;14.10;55.70;;;;;;20724;6845;117394;-72
2023/04/24 04:34:40;;;;;;;1.83;0.70;;;14.00;55.70;;;;;;20505;6845;307108;-73
2023/04/24 04:37:06;;;;;;;1.77;0.80;;;14.00;55.70;;;;;;20507;6845;289961;-72
2023/04/24 04:39:31;;;;;;;1.07;0.80;;;14.30;55.20;;;;;;20499;6845;312119;-72
2023/04/24 04:41:58;;;;;;;1.60;0.95;;;14.60;54.70;;;;;;20473;6845;308221;-74
2023/04/24 04:44:23;;;;;;;2.30;1.00;;;14.70;54.20;;;;;;20503;6845;308088;-74
2023/04/24 04:46:48;;;;;;;1.73;0.90;;;14.90;54.10;;;;;;20494;6845;313335;-76
2023/04/24 04:49:16;;;;;;;3.53;1.27;;;15.00;53.90;;;;;;20501;6845;282436;-75
2023/04/24 04:51:41;;;;;;;3.13;1.20;;;15.00;54.00;;;;;;20493;6845;307730;-76
2023/04/24 04:54:06;;;;;;;2.17;0.60;;;15.00;53.70;;;;;;20690;6845;119543;-76
2023/04/24 04:56:32;;;;;;;1.25;0.90;;;14.50;54.00;;;;;;20466;6845;307367;-76
2023/04/24 04:58:59;;;;;;;1.77;0.50;;;14.50;54.00;;;;;;20662;6845;117776;-76
2023/04/24 05:01:27;;;;;;;0.53;0.53;;;14.20;54.20;;;;;;20706;6845;117332;-75
2023/04/24 05:03:51;;;;;;;1.50;0.80;;;13.90;54.90;;;;;;20499;6845;308741;-75
2023/04/24 05:06:16;;;;;;;1.20;0.80;;;13.90;55.60;;;;;;20703;6845;117648;-76
2023/04/24 05:08:44;;;;;;;1.90;0.90;;;13.90;56.40;;;;;;20501;6845;322510;-74
2023/04/24 05:11:09;;;;;;;2.43;1.10;;;13.90;56.30;;;;;;20537;6845;277615;-75
2023/04/24 05:13:35;;;;;;;1.90;1.10;;;14.10;56.10;;;;;;20708;6845;119205;-75
2023/04/24 05:16:01;;;;;;;1.40;1.10;;;14.00;56.00;;;;;;20464;6845;308949;-75
2023/04/24 05:18:26;;;;;;;0.88;0.88;;;14.00;56.40;;;;;;20676;6845;118093;-75
2023/04/24 05:20:52;;;;;;;1.63;1.07;;;13.90;56.40;;;;;;20672;6845;117312;-75
2023/04/24 05:23:18;;;;;;;1.00;1.00;;;13.60;56.80;;;;;;20479;6845;308574;-75
2023/04/24 05:25:44;;;;;;;2.20;1.20;;;13.70;57.20;;;;;;20696;6845;117753;-75
2023/04/24 05:28:10;;;;;;;1.92;0.98;;;13.40;57.40;;;;;;20685;6845;117625;-75
2023/04/24 05:30:36;;;;;;;1.62;1.30;;;13.60;57.40;;;;;;20513;6845;337163;-76
2023/04/24 05:33:02;;;;;;;0.87;0.87;;;13.60;57.40;;;;;;20715;6845;117454;-74
2023/04/24 05:35:28;;;;;;;1.37;1.00;;;13.60;57.20;;;;;;20714;6845;117776;-75
2023/04/24 05:37:53;;;;;;;1.73;0.98;;;13.40;57.40;;;;;;20695;6843;119854;-75
2023/04/24 05:40:19;;;;;;;1.73;1.20;;;13.20;57.50;;;;;;20717;6844;117461;-74
2023/04/24 05:42:45;;;;;;;1.13;1.03;;;12.90;57.70;;;;;;20714;6845;117135;-75
2023/04/24 05:45:16;;;;;;;1.80;1.17;;;12.80;57.60;;;;;;20709;6845;117651;-75
2023/04/24 05:47:37;;;;;;;1.73;1.30;;;12.70;57.70;;;;;;20698;6845;117409;-73
2023/04/24 05:50:04;;;;;;;1.90;1.53;;;12.60;57.90;;;;;;20479;6845;308524;-75
2023/04/24 05:52:29;;;;;;;1.10;0.97;;;12.90;57.20;;;;;;20717;6845;123160;-72
2023/04/24 05:54:55;;;;;;;3.03;1.30;;;13.00;57.00;;;;;;20717;6845;117158;-72
2023/04/24 05:57:20;;;;;;;1.60;1.50;;;13.00;57.20;;;;;;20504;6845;338457;-72
2023/04/24 05:59:46;;;;;;;1.17;1.00;;;13.20;56.80;;;;;;20704;6845;119737;-72
2023/04/24 06:02:12;;;;;;;2.40;1.60;;;13.40;56.80;;;;;;20518;6845;280683;-72
2023/04/24 06:04:38;;;;;;;1.60;1.50;;;13.40;56.70;;;;;;20510;6845;322592;-73
2023/04/24 06:07:03;;;;;;;1.80;1.63;;;13.80;55.90;;;;;;20505;6845;338034;-73
2023/04/24 06:09:29;;;;;;;2.00;1.47;;;14.10;55.40;;;;;;20718;6845;122332;-73
2023/04/24 06:11:56;;;;;;;1.50;1.40;;;14.00;55.40;;;;;;20691;6845;121093;-73
2023/04/24 06:14:21;;;;;;;1.40;1.30;;;13.60;56.40;;;;;;20709;6845;119094;-74
2023/04/24 06:16:46;;;;;;;1.63;1.23;;;13.50;56.30;;;;;;20713;6845;117277;-74
2023/04/24 06:19:12;;;;;;;1.83;1.70;;;13.40;56.70;;;;;;20723;6845;117316;-75
2023/04/24 06:21:37;;;;;;;3.33;1.80;;;13.30;57.00;;;;;;20517;6845;278654;-74
2023/04/24 06:24:04;;;;;;;1.87;1.77;;;13.50;56.70;;;;;;20491;6845;308096;-75
2023/04/24 06:26:29;;;;;;;2.42;1.52;;;13.90;56.20;;;;;;20713;6845;119464;-74
2023/04/24 06:28:55;;;;;;;1.50;1.50;;;13.90;56.20;;;;;;20716;6845;117927;-74
2023/04/24 06:31:21;;;;;;;2.30;1.80;;;13.80;56.70;;;;;;20507;6845;337699;-74
2023/04/24 06:33:46;;;;;;;2.00;1.90;;;13.90;56.60;;;;;;20484;6845;308128;-74
2023/04/24 06:36:12;;;;;;;1.67;1.57;;;14.30;55.80;;;;;;20722;6845;121358;-74
2023/04/24 06:38:39;;;;;;;1.80;1.60;;;14.00;55.60;;;;;;20718;6845;118452;-74
2023/04/24 06:41:05;;;;;;;3.20;3.00;;;14.00;55.60;;;;;;20498;6845;310335;-74
2023/04/24 06:43:30;;;;;;;2.37;2.27;;;14.20;55.50;;;;;;20718;6845;117769;-74
2023/04/24 06:45:57;;;;;;;2.53;2.33;;;14.50;54.40;;;;;;20473;6845;285363;-75
2023/04/24 06:48:22;;;;;;;2.03;1.93;;;14.50;54.40;;;;;;20711;6843;121376;-75
2023/04/24 06:50:48;;;;;;;2.53;2.20;;;14.60;54.90;;;;;;20717;6844;120592;-73
2023/04/24 06:53:14;;;;;;;2.35;2.12;;;14.60;55.50;;;;;;20504;6845;331015;-73
2023/04/24 06:55:40;;;;;;;6.87;6.37;;;15.00;54.00;;;;;;20507;6845;278552;-73
2023/04/24 06:58:06;;;;;;;2.70;2.50;;;15.50;53.70;;;;;;20489;6845;293178;-73
2023/04/24 07:00:31;;;;;;;4.73;4.33;;;16.00;51.70;;;;;;20510;6845;278191;-74
2023/04/24 07:02:57;;;;;;;3.78;2.53;;;16.40;50.70;;;;;;20515;6845;307578;-75
2023/04/24 07:05:23;;;;;;;4.57;4.03;;;16.80;49.00;;;;;;20727;6845;117276;-74
2023/04/24 07:07:49;;;;;;;2.63;2.10;;;16.90;50.70;;;;;;20497;6845;278958;-74
2023/04/24 07:10:14;;;;;;;1.80;1.70;;;16.90;50.70;;;;;;20716;6845;117502;-75
2023/04/24 07:12:41;;;;;;;1.70;1.60;;;16.80;51.40;;;;;;20725;6845;117364;-76
2023/04/24 07:15:08;;;;;;;2.65;2.47;;;17.10;50.30;;;;;;20508;6845;279224;-75
2023/04/24 07:17:33;;;;;;;2.57;2.10;;;17.10;50.30;;;;;;20712;6845;117937;-75
2023/04/24 07:20:00;;;;;;;1.87;1.77;;;17.20;50.00;;;;;;20700;6845;119325;-78
2023/04/24 07:22:25;;;;;;;2.33;1.50;;;17.00;49.90;;;;;;20717;6845;118076;-76
2023/04/24 07:24:51;;;;;;;2.30;2.20;;;16.60;50.00;;;;;;20508;6845;278506;-79
2023/04/24 07:27:18;;;;;;;2.70;2.20;;;16.70;48.50;;;;;;20499;6845;308250;-79
2023/04/24 07:29:43;;;;;;;2.70;2.50;;;16.80;48.10;;;;;;20514;6845;324242;-79
2023/04/24 07:32:09;;;;;;;6.60;6.10;;;16.80;48.30;;;;;;20710;6845;121779;-76
2023/04/24 07:34:34;;;;;;;5.00;4.70;;;16.50;48.90;;;;;;20519;6845;312872;-82
2023/04/24 07:37:00;;;;;;;8.47;7.87;;;16.40;49.00;;;;;;20519;6845;308071;-76
2023/04/24 07:39:26;;;;;;;8.52;7.72;;;16.90;48.50;;;;;;20514;6845;337283;-77
2023/04/24 07:41:52;;;;;;;4.15;3.92;;;16.90;48.50;;;;;;20485;6845;279004;-74
2023/04/24 07:44:19;;;;;;;2.77;2.67;;;17.20;47.50;;;;;;20508;6845;298357;-76
2023/04/24 07:46:44;;;;;;;2.20;2.10;;;17.50;48.60;;;;;;20500;6845;312217;-76
2023/04/24 07:49:10;;;;;;;1.80;1.70;;;17.80;46.10;;;;;;20722;6845;119686;-75
2023/04/24 07:51:38;;;;;;;3.10;2.97;;;17.60;46.00;;;;;;20507;6845;307751;-78
2023/04/24 07:54:01;;;;;;;2.80;2.60;;;17.50;44.50;;;;;;20487;6845;307801;-74
2023/04/24 07:56:30;;;;;;;1.60;1.50;;;17.40;44.40;;;;;;20722;6845;118640;-78
2023/04/24 07:58:53;;;;;;;1.40;1.37;;;17.40;44.40;;;;;;20713;6845;117344;-71
2023/04/24 08:01:18;;;;;;;1.80;1.70;;;17.10;45.20;;;;;;20510;6843;307565;-71
2023/04/24 08:03:44;;;;;;;2.20;2.00;;;17.20;43.30;;;;;;20506;6845;308606;-71
2023/04/24 08:06:10;;;;;;;1.80;1.60;;;17.40;42.70;;;;;;20699;6845;117804;-71
2023/04/24 08:08:35;;;;;;;2.27;2.07;;;17.30;43.70;;;;;;20500;6845;307614;-71
2023/04/24 08:11:01;;;;;;;1.73;1.63;;;17.40;41.90;;;;;;20502;6845;329537;-72
2023/04/24 08:13:26;;;;;;;2.83;2.60;;;17.60;41.20;;;;;;20721;6845;117280;-71
2023/04/24 08:15:52;;;;;;;2.20;2.00;;;17.60;41.60;;;;;;20492;6845;278918;-71
2023/04/24 08:18:18;;;;;;;1.70;1.57;;;17.60;41.60;;;;;;20717;6845;120130;-71
2023/04/24 08:20:45;;;;;;;5.23;1.53;;;17.60;42.20;;;;;;20718;6845;118954;-71
2023/04/24 08:23:10;;;;;;;2.28;2.10;;;17.60;43.00;;;;;;20500;6845;308745;-72
2023/04/24 08:25:36;;;;;;;2.13;2.00;;;17.80;39.60;;;;;;20523;6845;280017;-71
2023/04/24 08:28:03;;;;;;;2.00;1.90;;;18.40;38.30;;;;;;20491;6845;282321;-71
2023/04/24 08:30:28;;;;;;;2.37;2.17;;;18.40;38.30;;;;;;20717;6845;123357;-72
2023/04/24 08:32:53;;;;;;;2.20;1.60;;;18.40;39.40;;;;;;20718;6845;118824;-71
2023/04/24 08:35:22;;;;;;;2.00;1.87;;;18.20;37.10;;;;;;20504;6845;279077;-71
2023/04/24 08:37:47;;;;;;;3.93;2.37;;;18.10;36.90;;;;;;20671;6845;120693;-71
2023/04/24 08:40:13;;;;;;;1.90;1.70;;;18.00;38.50;;;;;;20716;6845;117452;-71
2023/04/24 08:42:38;;;;;;;2.13;2.03;;;17.80;39.60;;;;;;20503;6845;308977;-71
2023/04/24 08:45:03;;;;;;;1.80;1.70;;;18.00;38.10;;;;;;20723;6845;118584;-71
2023/04/24 08:47:29;;;;;;;1.00;1.00;;;18.00;39.50;;;;;;20725;6845;117292;-71
2023/04/24 08:49:56;;;;;;;2.47;1.50;;;17.80;39.70;;;;;;20672;6845;121870;-74
2023/04/24 08:52:22;;;;;;;2.37;1.90;;;17.60;40.00;;;;;;20701;6845;117485;-73
2023/04/24 08:54:49;;;;;;;3.53;3.23;;;17.70;40.10;;;;;;20697;6845;121067;-73
2023/04/24 08:57:16;;;;;;;2.00;1.90;;;17.60;40.10;;;;;;20675;6845;117533;-74
2023/04/24 08:59:41;;;;;;;1.83;1.60;;;17.60;39.80;;;;;;20482;6845;308187;-70
2023/04/24 09:02:07;;;;;;;3.20;2.90;;;17.80;36.10;;;;;;20453;6845;278916;-71
2023/04/24 09:04:33;;;;;;;2.00;1.60;;;18.30;34.80;;;;;;20408;6845;281208;-71
2023/04/24 09:07:00;;;;;;;1.80;1.70;;;18.70;35.40;;;;;;20624;6845;117347;-71
2023/04/24 09:09:26;;;;;;;1.80;1.70;;;18.70;36.30;;;;;;20479;6845;311367;-73
2023/04/24 09:11:53;;;;;;;2.45;1.35;;;18.60;34.00;;;;;;20623;6843;117701;-73
2023/04/24 09:14:17;;;;;;;2.17;1.97;;;18.50;35.90;;;;;;20470;6844;278586;-73
2023/04/24 09:16:43;;;;;;;1.60;1.50;;;18.60;35.60;;;;;;20493;6845;285138;-72
2023/04/24 09:19:09;;;;;;;1.33;1.30;;;18.90;35.00;;;;;;20698;6845;117702;-71
2023/04/24 09:21:35;;;;;;;1.37;1.27;;;18.80;34.90;;;;;;20492;6845;337651;-71
2023/04/24 09:24:00;;;;;;;1.73;1.50;;;19.00;33.40;;;;;;20694;6845;144215;-71
2023/04/24 09:26:26;;;;;;;1.90;1.80;;;19.00;35.30;;;;;;20480;6845;279624;-73
2023/04/24 09:28:51;;;;;;;2.10;2.00;;;19.00;34.10;;;;;;20711;6845;117506;-73
2023/04/24 09:31:18;;;;;;;2.50;1.33;;;19.00;34.70;;;;;;20710;6845;118003;-73
2023/04/24 09:33:57;;;;;;;2.10;1.90;;;18.50;36.10;;;;;;20711;6845;118610;-74
2023/04/24 09:36:39;;;;;;;2.27;1.37;;;18.50;36.10;;;;;;20497;6845;308424;-74
2023/04/24 09:39:05;;;;;;;1.90;1.80;;;18.70;33.70;;;;;;20725;6845;117307;-75
2023/04/24 09:41:31;;;;;;;5.43;1.53;;;18.70;36.10;;;;;;20710;6845;122377;-75
2023/04/24 09:43:56;;;;;;;1.60;1.50;;;18.70;36.00;;;;;;20697;6845;121531;-74
2023/04/24 09:46:22;;;;;;;4.20;1.27;;;18.30;36.30;;;;;;20722;6845;118612;-74
2023/04/24 09:48:48;;;;;;;1.77;1.67;;;18.10;34.90;;;;;;20484;6845;278486;-74
2023/04/24 09:51:15;;;;;;;1.63;1.50;;;18.00;34.80;;;;;;20724;6845;117798;-75
2023/04/24 09:53:40;;;;;;;2.13;1.40;;;17.80;36.10;;;;;;20504;6845;279599;-75
2023/04/24 09:56:09;;;;;;;1.50;1.30;;;17.90;35.50;;;;;;20478;6845;338039;-74
2023/04/24 09:58:35;;;;;;;1.17;1.15;;;18.20;33.10;;;;;;20508;6845;279317;-74
2023/04/24 10:01:00;;;;;;;1.55;1.20;;;18.50;32.40;;;;;;20503;6845;308029;-75
2023/04/24 10:03:26;;;;;;;2.47;1.30;;;18.60;32.10;;;;;;20715;6845;117585;-74
2023/04/24 10:05:51;;;;;;;1.05;1.00;;;18.20;33.80;;;;;;20664;6845;117969;-73
2023/04/24 10:08:18;;;;;;;1.15;1.10;;;17.90;34.50;;;;;;20508;6845;277651;-72
2023/04/24 10:10:43;;;;;;;1.30;1.20;;;17.90;35.20;;;;;;20506;6845;302326;-75
2023/04/24 10:13:10;;;;;;;1.50;1.40;;;18.80;34.20;;;;;;20490;6845;278698;-73
2023/04/24 10:15:35;;;;;;;8.23;6.40;;;18.80;34.20;;;;;;20501;6845;279235;-75
2023/04/24 10:18:01;;;;;;;1.37;1.27;;;19.20;33.40;;;;;;20485;6845;278117;-70
2023/04/24 10:20:26;;;;;;;1.40;1.30;;;19.50;31.90;;;;;;20712;6845;117417;-72
2023/04/24 10:22:52;;;;;;;1.40;1.27;;;19.30;32.50;;;;;;20493;6845;278555;-71
2023/04/24 10:25:17;;;;;;;1.27;1.13;;;19.30;31.90;;;;;;20711;6843;120994;-72
2023/04/24 10:27:44;;;;;;;1.27;1.03;;;19.20;32.70;;;;;;20484;6845;292621;-72
2023/04/24 10:30:10;;;;;;;1.10;1.00;;;19.40;32.80;;;;;;20464;6839;307652;-71
2023/04/24 10:32:36;;;;;;;1.00;1.00;;;19.70;30.50;;;;;;20728;6839;117286;-72
2023/04/24 10:35:02;;;;;;;1.10;1.00;;;19.70;32.20;;;;;;20740;6839;117118;-73
2023/04/24 10:37:27;;;;;;;1.53;0.93;;;19.00;32.80;;;;;;20748;6839;117217;-71
2023/04/24 10:39:54;;;;;;;1.40;1.00;;;19.00;32.80;;;;;;20440;6839;316192;-72
2023/04/24 10:42:19;;;;;;;0.80;0.75;;;19.10;31.90;;;;;;20499;6839;316268;-73
2023/04/24 10:44:44;;;;;;;1.02;0.90;;;19.30;30.50;;;;;;20738;6839;120633;-72
2023/04/24 10:47:13;;;;;;;1.40;1.00;;;19.20;31.80;;;;;;20728;6839;119365;-72
2023/04/24 10:49:38;;;;;;;1.10;1.00;;;19.00;32.50;;;;;;20715;6839;117756;-70
2023/04/24 10:52:07;;;;;;;1.48;1.10;;;18.70;33.00;;;;;;20490;6839;310258;-72
2023/04/24 10:54:36;;;;;;;1.40;0.90;;;18.80;32.50;;;;;;20511;6839;287409;-73
2023/04/24 10:57:21;;;;;;;1.23;0.90;;;19.20;31.50;;;;;;20581;6856;123710;-74
2023/04/24 10:59:43;;;;;;;1.27;1.20;;;19.20;33.10;;;;;;20732;6831;118725;-74
2023/04/24 11:02:09;;;;;;;1.10;1.00;;;19.10;33.80;;;;;;20521;6831;307986;-75
2023/04/24 11:04:37;;;;;;;1.93;1.00;;;19.30;33.00;;;;;;20752;6831;118145;-75
2023/04/24 11:07:03;;;;;;;1.20;1.10;;;19.20;33.10;;;;;;20762;6831;121409;-74
2023/04/24 11:09:32;;;;;;;1.10;1.10;;;18.90;33.70;;;;;;20564;6831;278526;-75
2023/04/24 11:12:07;;;;;;;1.00;1.00;;;18.90;32.50;;;;;;20747;6831;117944;-76
2023/04/24 11:14:55;;;;;;;1.20;1.10;;;18.70;33.50;;;;;;20547;6831;278446;-74
2023/04/24 11:17:31;;;;;;;0.97;0.93;;;18.80;33.10;;;;;;20756;6831;117442;-75
2023/04/24 11:20:06;;;;;;;0.90;0.90;;;18.70;34.30;;;;;;20732;6831;121443;-74
2023/04/24 11:22:30;;;;;;;1.27;1.00;;;18.40;34.60;;;;;;20691;6839;118269;-76
2023/04/24 11:24:57;;;;;;;1.17;1.17;;;18.10;35.20;;;;;;20716;6839;117336;-76
2023/04/24 11:27:24;;;;;;;1.15;1.05;;;18.40;33.70;;;;;;20503;6839;337657;-73
2023/04/24 11:29:56;;;;;;;1.00;0.90;;;18.30;33.60;;;;;;20506;6839;278968;-75
2023/04/24 11:32:28;;;;;;;0.90;0.90;;;18.60;32.50;;;;;;20732;6839;117527;-76
2023/04/24 11:35:14;;;;;;;0.80;0.80;;;18.50;33.50;;;;;;20078;6855;119694;-76
2023/04/24 11:37:42;;;;;;;2.30;1.08;;;18.10;34.90;;;;;;20494;6830;306990;-75
2023/04/24 11:40:11;;;;;;;1.17;1.00;;;18.10;33.50;;;;;;20697;6839;117428;-76
2023/04/24 11:42:37;;;;;;;0.93;0.93;;;18.00;33.90;;;;;;20509;6839;342490;-74
2023/04/24 11:45:03;;;;;;;1.17;0.80;;;18.10;33.10;;;;;;20711;6839;117012;-74
2023/04/24 11:47:28;;;;;;;1.47;0.70;;;17.90;34.30;;;;;;20705;6839;117589;-74
2023/04/24 11:49:56;;;;;;;1.73;0.80;;;17.20;35.70;;;;;;20672;6839;123143;-73
2023/04/24 11:52:21;;;;;;;0.87;0.87;;;17.20;35.80;;;;;;20728;6839;117488;-73
2023/04/24 11:54:47;;;;;;;1.03;0.70;;;17.00;36.00;;;;;;20733;6839;117453;-73
2023/04/24 11:57:12;;;;;;;2.12;1.95;;;16.80;36.50;;;;;;20465;6856;312084;-73
2023/04/24 11:59:38;;;;;;;0.63;0.60;;;17.00;35.00;;;;;;20765;6831;117345;-73
2023/04/24 12:02:05;;;;;;;1.00;1.00;;;17.10;35.80;;;;;;20493;6839;278369;-73
2023/04/24 12:04:29;;;;;;;1.13;1.03;;;17.30;34.30;;;;;;20521;6839;297415;-73
2023/04/24 12:07:01;;;;;;;1.03;1.03;;;17.70;34.40;;;;;;20696;6839;117274;-74
2023/04/24 12:09:27;;;;;;;1.00;1.00;;;17.70;34.80;;;;;;20735;6839;117388;-75
2023/04/24 12:11:57;;;;;;;1.10;1.10;;;17.60;35.50;;;;;;20703;6839;117496;-73
2023/04/24 12:14:23;;;;;;;1.13;1.13;;;17.20;35.80;;;;;;20732;6839;124139;-73
2023/04/24 12:16:50;;;;;;;1.80;1.07;;;17.20;35.80;;;;;;20519;6839;304626;-73
2023/04/24 12:19:36;;;;;;;1.17;1.07;;;17.30;33.90;;;;;;20524;6839;316249;-73
2023/04/24 12:22:11;;;;;;;1.20;1.20;;;17.70;33.90;;;;;;20731;6756;119268;-73
2023/04/24 12:25:00;;;;;;;0.70;0.70;;;17.60;35.20;;;;;;20942;6730;117292;-73
2023/04/24 12:27:44;;;;;;;0.70;0.70;;;17.30;35.80;;;;;;20936;6739;116988;-73
2023/04/24 12:30:11;;;;;;;1.40;0.70;;;17.00;36.20;;;;;;20899;6739;123086;-73